Gandhi — A8OK8 — position and weather

sailwx.info

Track history (hours):
 
Tides and Currents Weather Stations Pressure Air Temp Water Temp Dewpoint Dewpoint Depression Visibility Wind Speed Wind Dir Waves Ship Positions

Gandhi

Last reported at 2014-Nov-23 01:13 UTC. Time now 2014-Nov-24 01:27 UTC.
Position N 36°34' W 008°45'.

Length 180 m; draft 8.7 m.

Type: Ship. MMSI: 636013645.

Date/timePositionNaut miles runAvg speedWind from/ knotsBaromVisibWave heightAir tempDewpointWater temp
2014-Nov-23 01:13N 36°34' W 008°45'16412.7
2014-Nov-22 12:21N 35°60' W 005°27'911.0
2014-Nov-22 11:33N 36°01' W 005°16'  
2014-Nov-19 20:34N 35°55' W 000°11'  
2014-Nov-16 15:33N 36°01' W 005°14'10 9.6
2014-Nov-16 14:32N 36°06' W 005°25'0 0.1
2014-Nov-16 13:17N 36°06' W 005°25'0 0.1
2014-Nov-16 12:20N 36°06' W 005°25'0 0.0
2014-Nov-16 11:11N 36°06' W 005°25'0 0.1
2014-Nov-16 10:26N 36°06' W 005°25'0 0.0
2014-Nov-16 09:32N 36°06' W 005°25'4 4.5
2014-Nov-16 08:33N 36°05' W 005°19'0 0.3
2014-Nov-16 07:34N 36°05' W 005°20'0 0.2
2014-Nov-16 06:33N 36°05' W 005°20'9 2.6
2014-Nov-16 03:10N 36°10' W 005°11'812.3
2014-Nov-16 02:33N 36°02' W 005°12'1110.9
2014-Nov-16 01:33N 35°59' W 005°25'  
Track history (hours):
 
Tides and Currents Weather Stations Pressure Air Temp Water Temp Dewpoint Dewpoint Depression Visibility Wind Speed Wind Dir Waves Ship Positions

Gandhi

Last reported at 2014-Nov-23 01:13 UTC. Time now 2014-Nov-24 01:27 UTC.
Position N 36°34' W 008°45'.

Length 180 m; draft 8.7 m.

Type: Ship. MMSI: 636013645.

Date/timePositionNaut miles runAvg speedWind from/ knotsBaromVisibWave heightAir tempDewpointWater temp
2014-Nov-23 01:13N 36°34' W 008°45'16412.7
2014-Nov-22 12:21N 35°60' W 005°27'911.0
2014-Nov-22 11:33N 36°01' W 005°16'  
2014-Nov-19 20:34N 35°55' W 000°11'  
2014-Nov-16 15:33N 36°01' W 005°14'10 9.6
2014-Nov-16 14:32N 36°06' W 005°25'0 0.1
2014-Nov-16 13:17N 36°06' W 005°25'0 0.1
2014-Nov-16 12:20N 36°06' W 005°25'0 0.0
2014-Nov-16 11:11N 36°06' W 005°25'0 0.1
2014-Nov-16 10:26N 36°06' W 005°25'0 0.0
2014-Nov-16 09:32N 36°06' W 005°25'4 4.5
2014-Nov-16 08:33N 36°05' W 005°19'0 0.3
2014-Nov-16 07:34N 36°05' W 005°20'0 0.2
2014-Nov-16 06:33N 36°05' W 005°20'9 2.6
2014-Nov-16 03:10N 36°10' W 005°11'812.3
2014-Nov-16 02:33N 36°02' W 005°12'1110.9
2014-Nov-16 01:33N 35°59' W 005°25'  

Dump ship's entire track history